French Lick, Indiana
Current Conditions -  °F | °C
As of 6:15 PM on Wednesday 26 Nov 2014 (Local Time) from KHNB Reporting Station
Clear Clear  
Wind Chill:   Ceiling: Unl
Heat Index:   Visibility: 10mi
Dew Point: -2°   Wind: 3mph
Humidity: 70%   Direction: 340°NNW
Pressure: 30.03"   Gusts: NA
Location:  38.55°N, 86.62°W
Report Text: KHNB 262315Z AUTO 34003KT 10SM CLR 03/M02 A3003 RMK AO1
Loading
Personal Weather Stations






























Interactive Weather Map New forecast layout! Learn more

10-Day Weather Forecast

Advertisements
Track Severe Weather on mobile